Lobo

Go HERE for most recent data if this page is not up to date.

Jump to table bottom
Date/Time Temp deg F RH % 24 Hr Snow (in) Snow Depth (in) H2O (in)
05/27 21:00 45.3 43 "NAN" 35.4 0.00
05/27 20:00 46.0 43 "NAN" 35.6 0.00
05/27 19:00 47.1 41 "NAN" 35.4 0.00
05/27 18:00 47.9 38 "NAN" 35.4 0.00
05/27 17:00 48.7 35 "NAN" 35.4 0.00
05/27 16:00 49.3 34 "NAN" 35.5 0.00
05/27 15:00 49.1 38 "NAN" 35.9 0.00
05/27 14:00 47.1 40 "NAN" 36.3 0.00
05/27 13:00 46.0 39 "NAN" 37.0 0.00
05/27 12:00 44.1 40 "NAN" 37.1 0.00
05/27 11:00 42.2 41 "NAN" 37.4 0.00
05/27 10:00 38.7 53 "NAN" 37.5 0.00
05/27 09:00 36.7 57 "NAN" 37.6 0.00
05/27 08:00 33.5 65 "NAN" 37.6 0.00
05/27 07:00 33.2 64 "NAN" 37.6 0.00
05/27 06:00 32.5 65 "NAN" 37.7 0.00
05/27 05:00 32.8 62 "NAN" 37.6 0.00
05/27 04:00 33.8 58 "NAN" 37.6 0.00
05/27 03:00 33.8 54 "NAN" 37.6 0.00
05/27 02:00 34.0 55 "NAN" 37.6 0.00
05/27 01:00 34.8 50 "NAN" 37.7 0.00
05/27 00:00 36.0 48 "NAN" 37.6 0.00
05/26 23:00 35.9 47 "NAN" 37.6 0.00
05/26 22:00 36.2 51 "NAN" 37.7 0.00
05/26 21:00 37.0 50 "NAN" 37.7 0.00
05/26 20:00 38.6 51 "NAN" 37.7 0.00
05/26 19:00 39.4 45 "NAN" 37.8 0.00
05/26 18:00 40.0 45 "NAN" 37.8 0.00
05/26 17:00 39.8 44 "NAN" 38.0 0.00
05/26 16:00 39.6 45 "NAN" 38.5 0.00
05/26 15:00 39.2 46 "NAN" 38.8 0.00
05/26 14:00 38.3 49 "NAN" 39.2 0.00
05/26 13:00 37.3 49 "NAN" 39.7 0.00
05/26 12:00 34.8 59 "NAN" 39.8 0.00
05/26 11:00 34.5 60 "NAN" 40.1 0.00
05/26 10:00 33.2 63 "NAN" 40.3 0.00
05/26 09:00 29.8 72 "NAN" 40.4 0.00
05/26 08:00 28.7 77 "NAN" 40.5 0.00
05/26 07:00 28.1 78 "NAN" 40.5 0.00
05/26 06:00 28.2 76 "NAN" 40.5 0.01
05/26 05:00 29.2 84 "NAN" 40.3 0.00
05/26 04:00 29.6 99 "NAN" 40.1 0.00
05/26 03:00 30.1 100 "NAN" 40.4 0.02
05/26 02:00 31.1 88 "NAN" 40.4 0.01
05/26 01:00 31.9 97 "NAN" 40.0 0.06
05/26 00:00 32.9 85 "NAN" 39.5 0.00
.